createdAt,value
2023-03-29T00:01:35.264Z,101823.78
2023-03-29T00:04:06.606Z,101807.75
2023-03-29T00:06:33.832Z,101817.03
2023-03-29T00:09:01.931Z,101813.88
2023-03-29T00:11:28.893Z,101828.34
2023-03-29T00:13:56.028Z,101832.72
2023-03-29T00:16:22.920Z,101833.56
2023-03-29T00:18:49.789Z,101820.91
2023-03-29T00:21:16.619Z,101829.41
2023-03-29T00:23:43.381Z,101819.31
2023-03-29T00:26:10.904Z,101827.00
2023-03-29T00:28:37.842Z,101824.44
2023-03-29T00:31:06.857Z,101819.38
2023-03-29T00:33:33.813Z,101816.03
2023-03-29T00:36:01.903Z,101823.66
2023-03-29T00:38:28.999Z,101811.91
2023-03-29T00:40:56.003Z,101827.19
2023-03-29T00:43:22.983Z,101832.34
2023-03-29T00:45:49.795Z,101814.59
2023-03-29T00:48:24.504Z,101829.84
2023-03-29T00:50:57.292Z,101822.22
2023-03-29T00:53:28.467Z,101829.75
2023-03-29T00:56:01.725Z,101824.66
2023-03-29T00:58:57.324Z,101822.81
2023-03-29T01:01:34.265Z,101833.22
2023-03-29T01:04:04.380Z,101824.69
2023-03-29T01:06:31.540Z,101816.25
2023-03-29T01:09:01.331Z,101826.44
2023-03-29T01:11:31.052Z,101814.47
2023-03-29T01:14:06.109Z,101813.66
2023-03-29T01:16:33.502Z,101822.16
2023-03-29T01:19:00.488Z,101808.56
2023-03-29T01:21:29.387Z,101819.53
2023-03-29T01:24:18.257Z,101807.63
2023-03-29T01:26:53.924Z,101806.84
2023-03-29T01:29:20.656Z,101806.06
2023-03-29T01:31:51.258Z,101807.03
2023-03-29T01:34:35.486Z,101803.72
2023-03-29T01:37:09.370Z,101797.91
2023-03-29T01:39:36.226Z,101792.88
2023-03-29T01:42:16.241Z,101781.06
2023-03-29T01:45:21.952Z,101792.78
2023-03-29T01:48:01.160Z,101785.13
2023-03-29T01:51:10.245Z,101797.91
2023-03-29T01:53:44.369Z,101802.97
2023-03-29T01:56:13.323Z,101800.44
2023-03-29T01:58:42.811Z,101784.34
2023-03-29T02:01:10.551Z,101804.75
2023-03-29T02:03:42.662Z,101803.13
2023-03-29T02:06:13.067Z,101805.63
2023-03-29T02:08:40.825Z,101810.72
2023-03-29T02:11:07.926Z,101803.03
2023-03-29T02:13:35.913Z,101807.31
2023-03-29T02:16:12.342Z,101803.97
2023-03-29T02:18:40.504Z,101798.06
2023-03-29T02:21:07.786Z,101786.25
2023-03-29T02:23:38.924Z,101810.75
2023-03-29T02:26:09.028Z,101800.75
2023-03-29T02:28:36.256Z,101811.78
2023-03-29T02:31:08.233Z,101809.28
2023-03-29T02:33:58.848Z,101816.06
2023-03-29T02:36:32.275Z,101804.25
2023-03-29T02:38:59.459Z,101808.59
2023-03-29T02:41:26.453Z,101805.25
2023-03-29T02:43:53.206Z,101797.72
2023-03-29T02:46:20.063Z,101801.13
2023-03-29T02:48:47.047Z,101797.63
2023-03-29T02:51:19.829Z,101801.06
2023-03-29T02:54:00.245Z,101793.44
2023-03-29T02:56:27.108Z,101794.22
2023-03-29T02:58:53.890Z,101788.25
2023-03-29T03:01:20.807Z,101794.22
2023-03-29T03:03:48.299Z,101804.41
2023-03-29T03:06:15.348Z,101797.63
2023-03-29T03:08:42.263Z,101787.47
2023-03-29T03:11:09.032Z,101777.34
2023-03-29T03:13:35.889Z,101796.78
2023-03-29T03:16:03.296Z,101782.34
2023-03-29T03:18:30.162Z,101784.13
2023-03-29T03:21:02.083Z,101779.91
2023-03-29T03:23:29.635Z,101774.88
2023-03-29T03:25:56.697Z,101798.50
2023-03-29T03:28:24.393Z,101797.78
2023-03-29T03:30:51.230Z,101787.69
2023-03-29T03:33:19.279Z,101797.00
2023-03-29T03:35:46.620Z,101787.78
2023-03-29T03:38:13.644Z,101791.19
2023-03-29T03:40:40.442Z,101793.75
2023-03-29T03:43:07.225Z,101777.72
2023-03-29T03:45:34.433Z,101789.72
2023-03-29T03:48:01.269Z,101788.91
2023-03-29T03:50:28.185Z,101788.16
2023-03-29T03:52:54.984Z,101783.94
2023-03-29T03:55:22.147Z,101780.63
2023-03-29T03:57:48.982Z,101790.78
2023-03-29T04:00:23.005Z,101787.44
2023-03-29T04:02:49.961Z,101795.91
2023-03-29T04:05:17.290Z,101791.81
2023-03-29T04:07:44.114Z,101801.16
2023-03-29T04:10:11.231Z,101807.13
2023-03-29T04:12:38.243Z,101800.34
2023-03-29T04:15:05.607Z,101797.09
2023-03-29T04:17:32.487Z,101805.59
2023-03-29T04:20:01.429Z,101806.38
2023-03-29T04:22:28.437Z,101798.75
2023-03-29T04:24:55.426Z,101797.00
2023-03-29T04:27:22.275Z,101791.91
2023-03-29T04:29:49.118Z,101791.09
2023-03-29T04:32:15.929Z,101791.94
2023-03-29T04:34:42.749Z,101786.75
2023-03-29T04:37:10.752Z,101787.63
2023-03-29T04:39:38.005Z,101792.66
2023-03-29T04:42:05.490Z,101790.94
2023-03-29T04:44:35.248Z,101794.97
2023-03-29T04:47:02.228Z,101796.53
2023-03-29T04:49:29.125Z,101788.81
2023-03-29T04:51:56.021Z,101794.16
2023-03-29T04:54:22.975Z,101793.53
2023-03-29T04:56:49.861Z,101772.44
2023-03-29T04:59:16.892Z,101784.34
2023-03-29T05:01:43.758Z,101786.81
2023-03-29T05:04:12.662Z,101781.47
2023-03-29T05:06:40.124Z,101768.66
2023-03-29T05:09:07.391Z,101778.47
2023-03-29T05:11:34.313Z,101779.63
2023-03-29T05:14:07.325Z,101773.09
2023-03-29T05:16:34.727Z,101772.44
2023-03-29T05:19:01.584Z,101775.06
2023-03-29T05:21:31.231Z,101776.84
2023-03-29T05:23:58.174Z,101766.75
2023-03-29T05:26:25.569Z,101764.09
2023-03-29T05:28:52.459Z,101752.63
2023-03-29T05:31:20.020Z,101762.84
2023-03-29T05:33:50.899Z,101755.28
2023-03-29T05:36:19.246Z,101751.03
2023-03-29T05:38:46.889Z,101751.72
2023-03-29T05:41:14.554Z,101752.78
2023-03-29T05:43:41.952Z,101743.28
2023-03-29T05:46:09.164Z,101750.28
2023-03-29T05:48:36.457Z,101754.69
2023-03-29T05:51:03.594Z,101748.63
2023-03-29T05:53:30.696Z,101742.78
2023-03-29T05:55:57.465Z,101747.03
2023-03-29T05:58:26.676Z,101751.41
2023-03-29T06:00:53.585Z,101747.19
2023-03-29T06:03:25.614Z,101743.00
2023-03-29T06:05:57.782Z,101744.13
2023-03-29T06:08:26.186Z,101744.00
2023-03-29T06:11:00.665Z,101743.34
2023-03-29T06:13:29.349Z,101746.19
2023-03-29T06:15:56.144Z,101726.38
2023-03-29T06:18:23.543Z,101740.28
2023-03-29T06:20:53.593Z,101737.34
2023-03-29T06:23:20.613Z,101736.72
2023-03-29T06:25:47.854Z,101745.00
2023-03-29T06:28:14.845Z,101743.25
2023-03-29T06:30:42.128Z,101743.69
2023-03-29T06:33:09.700Z,101739.31
2023-03-29T06:35:37.225Z,101738.41
2023-03-29T06:38:04.872Z,101742.63
2023-03-29T06:40:31.716Z,101731.78
2023-03-29T06:42:59.400Z,101731.25
2023-03-29T06:45:29.315Z,101727.66
2023-03-29T06:47:56.887Z,101733.66
2023-03-29T06:50:23.917Z,101719.06
2023-03-29T06:52:50.728Z,101742.38
2023-03-29T06:55:18.551Z,101731.66
2023-03-29T06:57:45.374Z,101739.56
2023-03-29T07:00:19.337Z,101733.72
2023-03-29T07:02:46.624Z,101729.56
2023-03-29T07:05:13.874Z,101726.25
2023-03-29T07:07:57.530Z,101728.06
2023-03-29T07:10:32.313Z,101719.53
2023-03-29T07:13:02.453Z,101710.41
2023-03-29T07:15:29.549Z,101708.47
2023-03-29T07:17:57.666Z,101713.50
2023-03-29T07:20:25.821Z,101717.59
2023-03-29T07:22:53.047Z,101713.75
2023-03-29T07:25:21.526Z,101708.25
2023-03-29T07:27:48.468Z,101701.22
2023-03-29T07:30:21.175Z,101711.63
2023-03-29T07:32:48.155Z,101706.25
2023-03-29T07:35:15.306Z,101700.03
2023-03-29T07:37:44.497Z,101687.63
2023-03-29T07:40:16.480Z,101678.13
2023-03-29T07:42:44.371Z,101678.81
2023-03-29T07:45:11.836Z,101676.97
2023-03-29T07:47:38.884Z,101662.59
2023-03-29T07:50:07.550Z,101677.81
2023-03-29T07:52:35.837Z,101660.19
2023-03-29T07:55:02.617Z,101665.50
2023-03-29T07:57:29.534Z,101653.00
2023-03-29T07:59:56.441Z,101664.91
2023-03-29T08:02:23.422Z,101665.28
2023-03-29T08:04:50.315Z,101660.78
2023-03-29T08:07:20.042Z,101662.03
2023-03-29T08:09:47.003Z,101657.03
2023-03-29T08:12:13.853Z,101656.97
2023-03-29T08:14:40.622Z,101659.09
2023-03-29T08:17:07.623Z,101658.69
2023-03-29T08:19:34.528Z,101653.81
2023-03-29T08:22:01.389Z,101654.28
2023-03-29T08:24:28.416Z,101655.69
2023-03-29T08:26:55.537Z,101658.75
2023-03-29T08:29:22.530Z,101657.19
2023-03-29T08:31:49.403Z,101649.16
2023-03-29T08:34:16.311Z,101637.56
2023-03-29T08:36:43.151Z,101637.66
2023-03-29T08:39:10.323Z,101637.91
2023-03-29T08:42:26.658Z,101637.34
2023-03-29T08:45:12.066Z,101636.78
2023-03-29T08:48:00.938Z,101630.34
2023-03-29T08:50:34.409Z,101626.19
2023-03-29T08:53:04.745Z,101620.91
2023-03-29T08:55:45.449Z,101612.63
2023-03-29T08:58:19.094Z,101610.47
2023-03-29T09:00:59.382Z,101610.28
2023-03-29T09:03:54.100Z,101615.16
2023-03-29T09:06:22.162Z,101604.97
2023-03-29T09:08:50.790Z,101601.44
2023-03-29T09:11:23.723Z,101611.28
2023-03-29T09:14:29.498Z,101599.41
2023-03-29T09:17:33.564Z,101602.22
2023-03-29T09:20:18.943Z,101607.03
2023-03-29T09:22:58.046Z,101601.16
2023-03-29T09:25:26.194Z,101603.38
2023-03-29T09:28:19.272Z,101602.59
2023-03-29T09:31:00.144Z,101597.72
2023-03-29T09:33:31.657Z,101596.91
2023-03-29T09:36:02.662Z,101594.16
2023-03-29T09:38:31.115Z,101589.84
2023-03-29T09:41:06.065Z,101573.97
2023-03-29T09:43:36.229Z,101577.91
2023-03-29T09:46:07.122Z,101581.16
2023-03-29T09:48:37.877Z,101575.41
2023-03-29T09:51:05.625Z,101577.88
2023-03-29T09:53:32.650Z,101565.31
2023-03-29T09:55:59.732Z,101564.66
2023-03-29T09:58:27.689Z,101554.44
2023-03-29T10:00:58.353Z,101563.94
2023-03-29T10:03:27.525Z,101561.16
2023-03-29T10:05:55.718Z,101555.19
2023-03-29T10:08:30.060Z,101556.38
2023-03-29T10:10:57.749Z,101550.25
2023-03-29T10:13:32.382Z,101549.34
2023-03-29T10:16:05.959Z,101553.09
2023-03-29T10:18:33.333Z,101543.97
2023-03-29T10:21:02.816Z,101542.34
2023-03-29T10:23:34.128Z,101536.03
2023-03-29T10:26:04.313Z,101525.84
2023-03-29T10:28:31.427Z,101541.56
2023-03-29T10:30:59.959Z,101531.81
2023-03-29T10:33:34.172Z,101534.84
2023-03-29T10:36:01.095Z,101518.84
2023-03-29T10:38:28.766Z,101520.81
2023-03-29T10:41:02.896Z,101526.25
2023-03-29T10:43:36.152Z,101519.81
2023-03-29T10:46:13.443Z,101507.97
2023-03-29T10:48:40.469Z,101524.56
2023-03-29T10:51:07.678Z,101516.19
2023-03-29T10:53:37.778Z,101510.59
2023-03-29T10:56:08.249Z,101517.28
2023-03-29T10:58:56.768Z,101509.72
2023-03-29T11:01:48.344Z,101507.19
2023-03-29T11:04:20.939Z,101495.50
2023-03-29T11:06:56.765Z,101489.59
2023-03-29T11:09:30.265Z,101488.47
2023-03-29T11:12:12.266Z,101495.91
2023-03-29T11:15:12.890Z,101481.00
2023-03-29T11:18:06.020Z,101472.91
2023-03-29T11:20:32.760Z,101463.91
2023-03-29T11:23:22.553Z,101469.34
2023-03-29T11:26:31.188Z,101469.34
2023-03-29T11:29:05.348Z,101451.47
2023-03-29T11:31:44.186Z,101458.44
2023-03-29T11:34:20.270Z,101468.19
2023-03-29T11:36:50.668Z,101455.66
2023-03-29T11:39:39.510Z,101459.84
2023-03-29T11:42:09.591Z,101454.63
2023-03-29T11:44:36.360Z,101467.25
2023-03-29T11:47:15.069Z,101459.53
2023-03-29T11:49:43.482Z,101457.22
2023-03-29T11:52:19.445Z,101457.47
2023-03-29T11:54:46.167Z,101451.56
2023-03-29T11:57:27.554Z,101443.72
2023-03-29T12:00:19.727Z,101435.78
2023-03-29T12:02:50.116Z,101437.16
2023-03-29T12:05:25.508Z,101418.31
2023-03-29T12:08:10.389Z,101430.84
2023-03-29T12:10:37.967Z,101425.59
2023-03-29T12:13:19.347Z,101425.72
2023-03-29T12:15:58.848Z,101437.16
2023-03-29T12:18:35.752Z,101432.28
2023-03-29T12:21:04.119Z,101429.69
2023-03-29T12:23:32.013Z,101430.91
2023-03-29T12:26:17.366Z,101440.06
2023-03-29T12:29:29.270Z,101434.56
2023-03-29T12:31:59.569Z,101442.63
2023-03-29T12:34:47.987Z,101435.66
2023-03-29T12:37:27.450Z,101425.09
2023-03-29T12:40:10.766Z,101427.72
2023-03-29T12:43:02.434Z,101426.88
2023-03-29T12:45:38.423Z,101425.09
2023-03-29T12:48:06.537Z,101422.78
2023-03-29T12:50:57.337Z,101428.56
2023-03-29T12:53:38.887Z,101420.63
2023-03-29T12:56:12.460Z,101410.69
2023-03-29T12:58:39.545Z,101426.72
2023-03-29T13:01:26.755Z,101408.34
2023-03-29T13:03:59.825Z,101396.84
2023-03-29T13:06:31.832Z,101383.25
2023-03-29T13:09:23.058Z,101380.97
2023-03-29T13:11:53.796Z,101383.97
2023-03-29T13:14:21.259Z,101376.31
2023-03-29T13:16:48.066Z,101382.06
2023-03-29T13:19:20.590Z,101380.19
2023-03-29T13:21:56.058Z,101381.84
2023-03-29T13:24:50.146Z,101379.22
2023-03-29T13:27:56.294Z,101373.81
2023-03-29T13:31:00.549Z,101384.66
2023-03-29T13:33:55.534Z,101379.31
2023-03-29T13:36:33.164Z,101377.81
2023-03-29T13:39:05.380Z,101379.91
2023-03-29T13:41:39.105Z,101375.41
2023-03-29T13:44:27.871Z,101371.78
2023-03-29T13:47:19.508Z,101380.13
2023-03-29T13:49:58.171Z,101379.06
2023-03-29T13:52:42.926Z,101373.72
2023-03-29T13:55:21.977Z,101367.41
2023-03-29T13:58:16.274Z,101383.00
2023-03-29T14:00:48.361Z,101363.13
2023-03-29T14:03:16.262Z,101356.56
2023-03-29T14:05:47.772Z,101349.75
2023-03-29T14:08:26.727Z,101344.59
2023-03-29T14:10:53.652Z,101367.09
2023-03-29T14:13:24.502Z,101349.84
2023-03-29T14:15:57.350Z,101351.41
2023-03-29T14:18:25.703Z,101356.06
2023-03-29T14:20:55.098Z,101358.97
2023-03-29T14:23:33.279Z,101351.19
2023-03-29T14:26:22.584Z,101353.88
2023-03-29T14:28:51.282Z,101345.69
2023-03-29T14:31:23.322Z,101352.22
2023-03-29T14:33:53.750Z,101350.56
2023-03-29T14:36:21.326Z,101353.44
2023-03-29T14:38:53.508Z,101341.31
2023-03-29T14:41:22.038Z,101321.63
2023-03-29T14:43:50.755Z,101335.84
2023-03-29T14:46:18.937Z,101324.81
2023-03-29T14:48:45.883Z,101324.31
2023-03-29T14:51:12.613Z,101334.41
2023-03-29T14:53:39.715Z,101326.22
2023-03-29T14:56:06.955Z,101330.00
2023-03-29T14:58:36.846Z,101334.50
2023-03-29T15:01:13.567Z,101322.16
2023-03-29T15:04:06.967Z,101324.19
2023-03-29T15:06:44.294Z,101323.69
2023-03-29T15:09:23.685Z,101316.56
2023-03-29T15:11:54.619Z,101316.56
2023-03-29T15:14:21.664Z,101324.19
2023-03-29T15:16:48.558Z,101304.94
2023-03-29T15:19:22.026Z,101299.84
2023-03-29T15:21:49.671Z,101307.09
2023-03-29T15:24:27.714Z,101308.53
2023-03-29T15:27:01.440Z,101310.34
2023-03-29T15:29:35.221Z,101309.81
2023-03-29T15:32:02.307Z,101307.59
2023-03-29T15:34:32.863Z,101313.34
2023-03-29T15:37:00.214Z,101312.81
2023-03-29T15:39:27.809Z,101300.59
2023-03-29T15:41:55.389Z,101313.09
2023-03-29T15:44:33.198Z,101311.94
2023-03-29T15:47:00.409Z,101303.75
2023-03-29T15:49:27.319Z,101301.59
2023-03-29T15:51:54.409Z,101302.53
2023-03-29T15:54:21.982Z,101306.00
2023-03-29T15:56:55.701Z,101304.91
2023-03-29T15:59:22.998Z,101300.69
2023-03-29T16:01:49.899Z,101297.25
2023-03-29T16:04:18.328Z,101299.91
2023-03-29T16:06:46.977Z,101300.66
2023-03-29T16:09:13.758Z,101303.13
2023-03-29T16:11:41.310Z,101300.16
2023-03-29T16:14:27.518Z,101301.59
2023-03-29T16:17:00.536Z,101299.44
2023-03-29T16:19:28.248Z,101294.00
2023-03-29T16:21:55.449Z,101287.13
2023-03-29T16:24:24.278Z,101288.44
2023-03-29T16:26:53.910Z,101285.66
2023-03-29T16:29:22.458Z,101284.34
2023-03-29T16:31:49.407Z,101281.72
2023-03-29T16:34:19.250Z,101296.09
2023-03-29T16:36:47.544Z,101285.59
2023-03-29T16:39:14.320Z,101281.19
2023-03-29T16:41:41.515Z,101285.72
2023-03-29T16:44:08.453Z,101279.38
2023-03-29T16:46:35.485Z,101287.88
2023-03-29T16:49:02.558Z,101280.81
2023-03-29T16:51:29.377Z,101287.81
2023-03-29T16:53:56.958Z,101278.94
2023-03-29T16:56:23.870Z,101274.34
2023-03-29T16:58:50.677Z,101285.31
2023-03-29T17:01:17.450Z,101272.13
2023-03-29T17:03:44.358Z,101287.63
2023-03-29T17:06:11.487Z,101282.38
2023-03-29T17:08:38.774Z,101288.75
2023-03-29T17:11:06.901Z,101289.06
2023-03-29T17:13:33.777Z,101282.06
2023-03-29T17:16:00.918Z,101292.09
2023-03-29T17:18:28.240Z,101284.28
2023-03-29T17:20:58.876Z,101286.81
2023-03-29T17:23:25.845Z,101275.31
2023-03-29T17:25:54.675Z,101274.13
2023-03-29T17:28:21.918Z,101269.88
2023-03-29T17:30:48.747Z,101272.50
2023-03-29T17:33:15.551Z,101271.44
2023-03-29T17:35:45.260Z,101278.00
2023-03-29T17:38:12.163Z,101283.84
2023-03-29T17:40:39.367Z,101271.25
2023-03-29T17:43:06.150Z,101278.75
2023-03-29T17:45:33.232Z,101282.66
2023-03-29T17:48:00.054Z,101278.75
2023-03-29T17:50:27.152Z,101287.75
2023-03-29T17:52:53.979Z,101293.81
2023-03-29T17:55:21.123Z,101281.31
2023-03-29T17:57:49.104Z,101280.50
2023-03-29T18:00:16.564Z,101289.50
2023-03-29T18:02:43.490Z,101292.25
2023-03-29T18:05:10.421Z,101293.53
2023-03-29T18:07:37.338Z,101297.56
2023-03-29T18:10:04.698Z,101290.69
2023-03-29T18:12:31.751Z,101285.09
2023-03-29T18:14:58.955Z,101291.16
2023-03-29T18:17:27.429Z,101285.94
2023-03-29T18:19:54.383Z,101294.47
2023-03-29T18:22:21.505Z,101289.81
2023-03-29T18:24:49.311Z,101296.38
2023-03-29T18:27:16.136Z,101298.75
2023-03-29T18:29:44.116Z,101296.84
2023-03-29T18:32:11.195Z,101288.41
2023-03-29T18:34:39.442Z,101294.47
2023-03-29T18:37:06.430Z,101282.34
2023-03-29T18:39:34.890Z,101275.84
2023-03-29T18:42:02.130Z,101281.75
2023-03-29T18:44:29.335Z,101271.44
2023-03-29T18:46:56.373Z,101270.72
2023-03-29T18:49:25.757Z,101273.09
2023-03-29T18:51:52.620Z,101269.28
2023-03-29T18:54:19.419Z,101269.97
2023-03-29T18:56:46.235Z,101264.84
2023-03-29T18:59:13.049Z,101263.13
2023-03-29T19:01:39.871Z,101265.09
2023-03-29T19:04:06.714Z,101258.63
2023-03-29T19:06:33.581Z,101263.44
2023-03-29T19:09:02.303Z,101257.88
2023-03-29T19:11:31.952Z,101262.53
2023-03-29T19:13:58.743Z,101257.09
2023-03-29T19:16:25.869Z,101255.25
2023-03-29T19:18:52.741Z,101253.06
2023-03-29T19:21:19.484Z,101251.84
2023-03-29T19:23:46.307Z,101258.59
2023-03-29T19:26:13.429Z,101252.16
2023-03-29T19:28:40.508Z,101250.72
2023-03-29T19:31:07.450Z,101246.41
2023-03-29T19:33:34.305Z,101246.53
2023-03-29T19:36:01.665Z,101244.47
2023-03-29T19:38:28.714Z,101251.13
2023-03-29T19:40:55.464Z,101235.59
2023-03-29T19:43:22.284Z,101230.31
2023-03-29T19:45:49.817Z,101236.63
2023-03-29T19:48:22.362Z,101231.34
2023-03-29T19:50:50.578Z,101234.34
2023-03-29T19:53:17.440Z,101234.97
2023-03-29T19:55:45.423Z,101226.94
2023-03-29T19:58:12.620Z,101235.47
2023-03-29T20:00:39.487Z,101226.69
2023-03-29T20:03:09.913Z,101226.47
2023-03-29T20:05:37.607Z,101220.16
2023-03-29T20:08:04.418Z,101210.78
2023-03-29T20:10:31.565Z,101214.06
2023-03-29T20:12:58.379Z,101205.34
2023-03-29T20:15:26.040Z,101198.78
2023-03-29T20:17:54.488Z,101202.63
2023-03-29T20:20:24.139Z,101203.56
2023-03-29T20:22:54.097Z,101202.53
2023-03-29T20:25:21.368Z,101205.84
2023-03-29T20:27:49.555Z,101195.63
2023-03-29T20:30:16.508Z,101190.41
2023-03-29T20:32:43.478Z,101189.38
2023-03-29T20:35:11.671Z,101185.13
2023-03-29T20:37:38.495Z,101176.69
2023-03-29T20:40:08.286Z,101172.31
2023-03-29T20:42:36.787Z,101182.91
2023-03-29T20:45:04.428Z,101175.19
2023-03-29T20:47:31.537Z,101171.88
2023-03-29T20:49:58.894Z,101167.28
2023-03-29T20:52:25.707Z,101166.25
2023-03-29T20:54:52.642Z,101164.38
2023-03-29T20:57:21.012Z,101167.69
2023-03-29T20:59:49.427Z,101170.06
2023-03-29T21:02:21.938Z,101161.19
2023-03-29T21:04:52.539Z,101159.44
2023-03-29T21:07:20.113Z,101155.03
2023-03-29T21:09:48.496Z,101162.84
2023-03-29T21:12:15.310Z,101171.63
2023-03-29T21:14:42.050Z,101160.38
2023-03-29T21:17:09.533Z,101160.38
2023-03-29T21:19:38.237Z,101158.81
2023-03-29T21:22:05.453Z,101146.22
2023-03-29T21:24:33.185Z,101151.94
2023-03-29T21:27:00.667Z,101157.03
2023-03-29T21:29:27.652Z,101158.00
2023-03-29T21:31:54.750Z,101152.91
2023-03-29T21:34:21.848Z,101146.13
2023-03-29T21:36:49.393Z,101144.34
2023-03-29T21:39:16.352Z,101151.13
2023-03-29T21:41:43.209Z,101129.78
2023-03-29T21:44:10.064Z,101123.50
2023-03-29T21:46:36.931Z,101130.50
2023-03-29T21:49:03.792Z,101131.47
2023-03-29T21:51:30.547Z,101129.56
2023-03-29T21:53:57.330Z,101119.44
2023-03-29T21:56:24.143Z,101129.34
2023-03-29T21:58:51.069Z,101131.34
2023-03-29T22:01:17.996Z,101118.44
2023-03-29T22:03:44.883Z,101123.38
2023-03-29T22:06:12.993Z,101121.75
2023-03-29T22:08:39.859Z,101121.50
2023-03-29T22:11:11.061Z,101112.28
2023-03-29T22:13:38.000Z,101109.53
2023-03-29T22:16:05.363Z,101110.88
2023-03-29T22:18:49.299Z,101108.97
2023-03-29T22:21:18.461Z,101114.09
2023-03-29T22:23:47.590Z,101109.09
2023-03-29T22:26:15.087Z,101103.88
2023-03-29T22:28:41.892Z,101104.63
2023-03-29T22:31:10.576Z,101095.94
2023-03-29T22:33:37.502Z,101102.22
2023-03-29T22:36:15.676Z,101089.53
2023-03-29T22:38:42.860Z,101088.38
2023-03-29T22:41:09.794Z,101090.97
2023-03-29T22:43:37.097Z,101084.22
2023-03-29T22:46:05.357Z,101084.00
2023-03-29T22:48:32.299Z,101095.72
2023-03-29T22:50:59.291Z,101080.00
2023-03-29T22:53:26.122Z,101079.03
2023-03-29T22:55:53.538Z,101075.47
2023-03-29T22:58:20.748Z,101081.41
2023-03-29T23:00:48.027Z,101078.47
2023-03-29T23:03:14.889Z,101080.16
2023-03-29T23:05:41.683Z,101066.75
2023-03-29T23:08:08.439Z,101067.56
2023-03-29T23:10:35.458Z,101062.44
2023-03-29T23:13:15.718Z,101062.72
2023-03-29T23:15:45.313Z,101070.63
2023-03-29T23:18:24.265Z,101044.53
2023-03-29T23:20:52.645Z,101059.72
2023-03-29T23:23:19.725Z,101064.06
2023-03-29T23:25:47.579Z,101063.47
2023-03-29T23:28:15.144Z,101061.94
2023-03-29T23:30:42.021Z,101059.63
2023-03-29T23:33:10.536Z,101051.69
2023-03-29T23:35:37.896Z,101061.38
2023-03-29T23:38:05.831Z,101055.91
2023-03-29T23:40:33.275Z,101064.03
2023-03-29T23:43:00.597Z,101061.78
2023-03-29T23:45:30.124Z,101059.59
2023-03-29T23:47:57.490Z,101064.19
2023-03-29T23:50:24.363Z,101056.50
2023-03-29T23:52:51.774Z,101059.00
2023-03-29T23:55:19.562Z,101051.31
2023-03-29T23:57:46.441Z,101048.91
